F/V Pasiphae 2 — FMFN — position and weather

sailwx.info

Track history (hours):
 
Tides and Currents Weather Stations Pressure Air Temp Water Temp Dewpoint Dewpoint Depression Visibility Wind Speed Wind Dir Waves Ship Positions

F/V Pasiphae 2

Last reported at 2016-Dec-09 09:30 UTC. Time now 2016-Dec-09 09:43 UTC.
Position N 47°08' W 003°44'.

Length 14 m.

Type: Fishing. MMSI: 228224800.

Date/timePositionNaut miles runAvg speedWind from/ knotsBaromVisibWave heightAir tempDewpointWater temp
2016-Dec-09 09:30N 47°08' W 003°44'3 3.1
2016-Dec-09 08:33N 47°10' W 003°40'3 2.5
2016-Dec-09 07:33N 47°09' W 003°44'2 2.4
2016-Dec-09 06:33N 47°11' W 003°43'4 3.7
2016-Dec-09 05:33N 47°15' W 003°41'4 3.9
2016-Dec-09 04:33N 47°18' W 003°38'5 5.1
2016-Dec-09 03:33N 47°22' W 003°34'9 8.8
2016-Dec-09 02:33N 47°30' W 003°27'9 8.8
2016-Dec-09 01:33N 47°38' W 003°23'6 5.7
2016-Dec-09 00:33N 47°44' W 003°22'6 5.8
2016-Dec-08 23:33N 47°38' W 003°23'9 9.1
2016-Dec-08 22:33N 47°29' W 003°25'9 9.2
2016-Dec-08 21:33N 47°20' W 003°29'5 4.7
2016-Dec-08 20:33N 47°17' W 003°33'4 3.6
2016-Dec-08 19:33N 47°14' W 003°37'4 3.8
2016-Dec-08 18:33N 47°11' W 003°40'2 1.1
2016-Dec-08 16:33N 47°11' W 003°43'2 2.1
2016-Dec-08 15:33N 47°10' W 003°45'3 3.0
2016-Dec-08 14:33N 47°09' W 003°41'3 2.5
2016-Dec-08 13:33N 47°11' W 003°43'3 3.3
2016-Dec-08 12:32N 47°08' W 003°44'3 1.3
2016-Dec-08 10:34N 47°11' W 003°44'2 1.9
2016-Dec-08 09:25N 47°09' W 003°42'3 3.8
2016-Dec-08 08:32N 47°10' W 003°37'3 3.2
2016-Dec-08 07:29N 47°10' W 003°32'3 3.7
2016-Dec-08 06:33N 47°08' W 003°28'3 3.4
2016-Dec-08 05:33N 47°06' W 003°25'2 2.4
2016-Dec-08 04:33N 47°08' W 003°23'4 3.7
2016-Dec-08 03:33N 47°05' W 003°27'3 2.9
2016-Dec-08 02:32N 47°05' W 003°31'4 3.7
2016-Dec-08 01:30N 47°09' W 003°33'2 2.2
2016-Dec-08 00:33N 47°11' W 003°32'3 3.3
2016-Dec-07 23:33N 47°08' W 003°32'4 3.8
2016-Dec-07 22:33N 47°04' W 003°30'3 0.6
2016-Dec-07 18:03N 47°07' W 003°31'2 3.7
2016-Dec-07 17:33N 47°08' W 003°33'2 0.3
2016-Dec-07 10:27N 47°07' W 003°35'3 1.4
2016-Dec-07 08:33N 47°06' W 003°31'3 2.9
2016-Dec-07 07:28N 47°05' W 003°27'4 3.7
2016-Dec-07 06:24N 47°07' W 003°23'5 6.4
2016-Dec-07 05:33N 47°13' W 003°23'9 8.7
2016-Dec-07 04:33N 47°21' W 003°23'9 8.7
2016-Dec-07 03:33N 47°30' W 003°23'9 8.8
2016-Dec-07 02:33N 47°39' W 003°23'5 4.7
2016-Dec-07 01:33N 47°44' W 003°22'2 2.4
2016-Dec-07 00:33N 47°41' W 003°22'9 9.2
2016-Dec-06 23:33N 47°32' W 003°23'9 9.1
2016-Dec-06 22:33N 47°23' W 003°23'9 9.1
2016-Dec-06 21:33N 47°14' W 003°23'8 1.7
2016-Dec-06 17:08N 47°10' W 003°32'7 0.6
2016-Dec-06 06:10N 47°06' W 003°24'2 2.6
2016-Dec-06 05:33N 47°06' W 003°26'3 2.8
2016-Dec-06 04:33N 47°09' W 003°25'3 2.7
2016-Dec-06 03:33N 47°06' W 003°23'2 1.2
2016-Dec-06 01:33N 47°06' W 003°27'3 2.7
2016-Dec-06 00:33N 47°07' W 003°23'3 2.3
2016-Dec-05 23:16N 47°09' W 003°27'2 2.3
2016-Dec-05 22:34N 47°07' W 003°26'13 0.8
2016-Dec-05 05:23N 47°18' W 003°35'7 8.4
2016-Dec-05 04:33N 47°25' W 003°31'8 8.4
2016-Dec-05 03:33N 47°32' W 003°25'8 8.5
2016-Dec-05 02:33N 47°41' W 003°22'3 0.1
2016-Dec-03 01:33N 47°44' W 003°22'0 0.2
2016-Dec-03 00:33N 47°43' W 003°22'9 9.1
2016-Dec-02 23:33N 47°34' W 003°23'9 8.8
2016-Dec-02 22:33N 47°27' W 003°29'8 8.1
2016-Dec-02 21:31N 47°19' W 003°35'12 1.7
2016-Dec-02 14:33N 47°11' W 003°47'2 1.2
2016-Dec-02 12:33N 47°10' W 003°44'3 2.9
2016-Dec-02 11:33N 47°08' W 003°45'2 2.4
2016-Dec-02 10:32N 47°09' W 003°42'3 3.1
2016-Dec-02 09:33N 47°06' W 003°42'2 2.5
2016-Dec-02 08:33N 47°08' W 003°44'4 3.6
2016-Dec-02 07:33N 47°10' W 003°39'4 3.6
2016-Dec-02 06:33N 47°12' W 003°35'4 3.7
2016-Dec-02 05:33N 47°16' W 003°35'9 8.8
2016-Dec-02 04:33N 47°24' W 003°30'9 8.6
2016-Dec-02 03:33N 47°32' W 003°25'9 8.7
2016-Dec-02 02:33N 47°40' W 003°22'4 3.6
2016-Dec-02 01:33N 47°44' W 003°22'7 6.6
2016-Dec-02 00:33N 47°37' W 003°22'9 9.0
2016-Dec-01 23:33N 47°28' W 003°23'9 8.8
2016-Dec-01 22:33N 47°19' W 003°25'3 2.5
2016-Dec-01 21:33N 47°18' W 003°27'3 3.4
2016-Dec-01 20:32N 47°16' W 003°32'3 3.4
2016-Dec-01 19:33N 47°15' W 003°37'6 0.4
2016-Dec-01 04:06N 47°10' W 003°37'2 3.4
2016-Dec-01 03:31N 47°08' W 003°35'3 0.1
2016-Nov-30 04:15N 47°06' W 003°32'15 5.5
2016-Nov-30 01:32N 47°21' W 003°27'8 8.6
2016-Nov-30 00:33N 47°29' W 003°25'8 8.4
2016-Nov-29 23:33N 47°38' W 003°22'6 6.2
2016-Nov-29 22:33N 47°44' W 003°22'2 2.0
2016-Nov-29 21:33N 47°42' W 003°22'9 9.0
2016-Nov-29 20:33N 47°33' W 003°22'7 7.4
2016-Nov-29 19:33N 47°25' W 003°23'3 3.3
2016-Nov-29 18:33N 47°25' W 003°19'3 2.9
2016-Nov-29 17:33N 47°26' W 003°15'3 3.3
2016-Nov-29 16:33N 47°25' W 003°20'  
Track history (hours):
 
Tides and Currents Weather Stations Pressure Air Temp Water Temp Dewpoint Dewpoint Depression Visibility Wind Speed Wind Dir Waves Ship Positions

F/V Pasiphae 2

Last reported at 2016-Dec-09 09:30 UTC. Time now 2016-Dec-09 09:43 UTC.
Position N 47°08' W 003°44'.

Length 14 m.

Type: Fishing. MMSI: 228224800.

Date/timePositionNaut miles runAvg speedWind from/ knotsBaromVisibWave heightAir tempDewpointWater temp
2016-Dec-09 09:30N 47°08' W 003°44'3 3.1
2016-Dec-09 08:33N 47°10' W 003°40'3 2.5
2016-Dec-09 07:33N 47°09' W 003°44'2 2.4
2016-Dec-09 06:33N 47°11' W 003°43'4 3.7
2016-Dec-09 05:33N 47°15' W 003°41'4 3.9
2016-Dec-09 04:33N 47°18' W 003°38'5 5.1
2016-Dec-09 03:33N 47°22' W 003°34'9 8.8
2016-Dec-09 02:33N 47°30' W 003°27'9 8.8
2016-Dec-09 01:33N 47°38' W 003°23'6 5.7
2016-Dec-09 00:33N 47°44' W 003°22'6 5.8
2016-Dec-08 23:33N 47°38' W 003°23'9 9.1
2016-Dec-08 22:33N 47°29' W 003°25'9 9.2
2016-Dec-08 21:33N 47°20' W 003°29'5 4.7
2016-Dec-08 20:33N 47°17' W 003°33'4 3.6
2016-Dec-08 19:33N 47°14' W 003°37'4 3.8
2016-Dec-08 18:33N 47°11' W 003°40'2 1.1
2016-Dec-08 16:33N 47°11' W 003°43'2 2.1
2016-Dec-08 15:33N 47°10' W 003°45'3 3.0
2016-Dec-08 14:33N 47°09' W 003°41'3 2.5
2016-Dec-08 13:33N 47°11' W 003°43'3 3.3
2016-Dec-08 12:32N 47°08' W 003°44'3 1.3
2016-Dec-08 10:34N 47°11' W 003°44'2 1.9
2016-Dec-08 09:25N 47°09' W 003°42'3 3.8
2016-Dec-08 08:32N 47°10' W 003°37'3 3.2
2016-Dec-08 07:29N 47°10' W 003°32'3 3.7
2016-Dec-08 06:33N 47°08' W 003°28'3 3.4
2016-Dec-08 05:33N 47°06' W 003°25'2 2.4
2016-Dec-08 04:33N 47°08' W 003°23'4 3.7
2016-Dec-08 03:33N 47°05' W 003°27'3 2.9
2016-Dec-08 02:32N 47°05' W 003°31'4 3.7
2016-Dec-08 01:30N 47°09' W 003°33'2 2.2
2016-Dec-08 00:33N 47°11' W 003°32'3 3.3
2016-Dec-07 23:33N 47°08' W 003°32'4 3.8
2016-Dec-07 22:33N 47°04' W 003°30'3 0.6
2016-Dec-07 18:03N 47°07' W 003°31'2 3.7
2016-Dec-07 17:33N 47°08' W 003°33'2 0.3
2016-Dec-07 10:27N 47°07' W 003°35'3 1.4
2016-Dec-07 08:33N 47°06' W 003°31'3 2.9
2016-Dec-07 07:28N 47°05' W 003°27'4 3.7
2016-Dec-07 06:24N 47°07' W 003°23'5 6.4
2016-Dec-07 05:33N 47°13' W 003°23'9 8.7
2016-Dec-07 04:33N 47°21' W 003°23'9 8.7
2016-Dec-07 03:33N 47°30' W 003°23'9 8.8
2016-Dec-07 02:33N 47°39' W 003°23'5 4.7
2016-Dec-07 01:33N 47°44' W 003°22'2 2.4
2016-Dec-07 00:33N 47°41' W 003°22'9 9.2
2016-Dec-06 23:33N 47°32' W 003°23'9 9.1
2016-Dec-06 22:33N 47°23' W 003°23'9 9.1
2016-Dec-06 21:33N 47°14' W 003°23'8 1.7
2016-Dec-06 17:08N 47°10' W 003°32'7 0.6
2016-Dec-06 06:10N 47°06' W 003°24'2 2.6
2016-Dec-06 05:33N 47°06' W 003°26'3 2.8
2016-Dec-06 04:33N 47°09' W 003°25'3 2.7
2016-Dec-06 03:33N 47°06' W 003°23'2 1.2
2016-Dec-06 01:33N 47°06' W 003°27'3 2.7
2016-Dec-06 00:33N 47°07' W 003°23'3 2.3
2016-Dec-05 23:16N 47°09' W 003°27'2 2.3
2016-Dec-05 22:34N 47°07' W 003°26'13 0.8
2016-Dec-05 05:23N 47°18' W 003°35'7 8.4
2016-Dec-05 04:33N 47°25' W 003°31'8 8.4
2016-Dec-05 03:33N 47°32' W 003°25'8 8.5
2016-Dec-05 02:33N 47°41' W 003°22'3 0.1
2016-Dec-03 01:33N 47°44' W 003°22'0 0.2
2016-Dec-03 00:33N 47°43' W 003°22'9 9.1
2016-Dec-02 23:33N 47°34' W 003°23'9 8.8
2016-Dec-02 22:33N 47°27' W 003°29'8 8.1
2016-Dec-02 21:31N 47°19' W 003°35'12 1.7
2016-Dec-02 14:33N 47°11' W 003°47'2 1.2
2016-Dec-02 12:33N 47°10' W 003°44'3 2.9
2016-Dec-02 11:33N 47°08' W 003°45'2 2.4
2016-Dec-02 10:32N 47°09' W 003°42'3 3.1
2016-Dec-02 09:33N 47°06' W 003°42'2 2.5
2016-Dec-02 08:33N 47°08' W 003°44'4 3.6
2016-Dec-02 07:33N 47°10' W 003°39'4 3.6
2016-Dec-02 06:33N 47°12' W 003°35'4 3.7
2016-Dec-02 05:33N 47°16' W 003°35'9 8.8
2016-Dec-02 04:33N 47°24' W 003°30'9 8.6
2016-Dec-02 03:33N 47°32' W 003°25'9 8.7
2016-Dec-02 02:33N 47°40' W 003°22'4 3.6
2016-Dec-02 01:33N 47°44' W 003°22'7 6.6
2016-Dec-02 00:33N 47°37' W 003°22'9 9.0
2016-Dec-01 23:33N 47°28' W 003°23'9 8.8
2016-Dec-01 22:33N 47°19' W 003°25'3 2.5
2016-Dec-01 21:33N 47°18' W 003°27'3 3.4
2016-Dec-01 20:32N 47°16' W 003°32'3 3.4
2016-Dec-01 19:33N 47°15' W 003°37'6 0.4
2016-Dec-01 04:06N 47°10' W 003°37'2 3.4
2016-Dec-01 03:31N 47°08' W 003°35'3 0.1
2016-Nov-30 04:15N 47°06' W 003°32'15 5.5
2016-Nov-30 01:32N 47°21' W 003°27'8 8.6
2016-Nov-30 00:33N 47°29' W 003°25'8 8.4
2016-Nov-29 23:33N 47°38' W 003°22'6 6.2
2016-Nov-29 22:33N 47°44' W 003°22'2 2.0
2016-Nov-29 21:33N 47°42' W 003°22'9 9.0
2016-Nov-29 20:33N 47°33' W 003°22'7 7.4
2016-Nov-29 19:33N 47°25' W 003°23'3 3.3
2016-Nov-29 18:33N 47°25' W 003°19'3 2.9
2016-Nov-29 17:33N 47°26' W 003°15'3 3.3
2016-Nov-29 16:33N 47°25' W 003°20'  

Dump ship's entire track history